Time;durP1;ratioP1;P1;durP2;ratioP2;P2;SDS_P1;SDS_P2;PMS_P1;PMS_P2;Temp;Humidity;BMP_temperature;BMP_pressure;BME280_temperature;BME280_humidity;BME280_pressure;Samples;Min_cycle;Max_cycle;Signal;HPM_P1;HPM_P2
2023/02/04 00:04:58;;;;;;;3.40;1.20;;;6.30;99.90;;;;;;20999708;28;20102;-77
2023/02/04 00:14:59;;;;;;;3.05;1.55;;;6.20;99.90;;;;;;20991417;28;20470;-77
2023/02/04 00:24:59;;;;;;;1.70;1.17;;;6.20;99.90;;;;;;21008218;28;20028;-76
2023/02/04 00:35:06;;;;;;;;;;;6.20;99.90;;;;;;21020716;28;20107;-77
2023/02/04 00:45:09;;;;;;;3.30;1.30;;;6.10;99.90;;;;;;20991880;28;20379;-77
2023/02/04 00:55:11;;;;;;;2.42;1.70;;;6.10;99.90;;;;;;20972475;28;20032;-76
2023/02/04 01:05:11;;;;;;;1.60;1.50;;;6.00;99.90;;;;;;20989957;28;20399;-77
2023/02/04 01:15:12;;;;;;;;;;;6.00;99.90;;;;;;20991521;28;20043;-76
2023/02/04 01:25:13;;;;;;;7.53;2.60;;;5.90;99.90;;;;;;20971188;28;20279;-75
2023/02/04 01:35:15;;;;;;;7.05;2.63;;;5.90;99.90;;;;;;20986981;28;20028;-76
2023/02/04 01:45:15;;;;;;;;;;;5.80;99.90;;;;;;21004576;28;20054;-76
2023/02/04 01:55:19;;;;;;;6.53;2.63;;;5.80;99.90;;;;;;21002326;28;19912;-76
2023/02/04 02:05:26;;;;;;;11.90;2.78;;;5.70;99.90;;;;;;21060862;28;20028;-75
2023/02/04 02:15:27;;;;;;;5.68;2.60;;;5.70;99.90;;;;;;21015124;28;20085;-76
2023/02/04 02:25:28;;;;;;;11.20;4.93;;;5.70;99.90;;;;;;21085961;28;20047;-77
2023/02/04 02:35:28;;;;;;;;;;;5.70;99.90;;;;;;21028091;28;20426;-76
2023/02/04 02:45:33;;;;;;;3.17;2.17;;;5.70;99.90;;;;;;21008595;28;19915;-77
2023/02/04 02:55:34;;;;;;;5.00;2.85;;;5.70;99.90;;;;;;21043323;28;20028;-76
2023/02/04 03:05:43;;;;;;;6.00;2.63;;;5.70;99.90;;;;;;21008337;28;20028;-76
2023/02/04 03:15:47;;;;;;;4.90;2.22;;;5.70;99.90;;;;;;21049493;28;20028;-76
2023/02/04 03:25:48;;;;;;;8.65;2.67;;;5.80;99.90;;;;;;21081217;28;20085;-76
2023/02/04 03:35:50;;;;;;;;;;;5.80;99.90;;;;;;21032913;28;20028;-77
2023/02/04 03:45:51;;;;;;;4.20;2.63;;;5.80;99.90;;;;;;21036067;28;19908;-76
2023/02/04 03:55:51;;;;;;;;;;;5.80;99.90;;;;;;21013328;28;20293;-77
2023/02/04 04:05:52;;;;;;;6.03;2.67;;;5.90;99.90;;;;;;21030220;28;19908;-76
2023/02/04 04:15:53;;;;;;;;;;;5.80;99.90;;;;;;21057239;28;20467;-77
2023/02/04 04:25:53;;;;;;;5.20;2.67;;;5.70;99.90;;;;;;21056149;28;20401;-76
2023/02/04 04:35:54;;;;;;;;;;;5.70;99.90;;;;;;21013427;28;20181;-75
2023/02/04 04:45:55;;;;;;;6.83;3.37;;;5.60;99.90;;;;;;21006640;28;20286;-76
2023/02/04 04:55:56;;;;;;;;;;;5.50;99.90;;;;;;21037378;28;20063;-76
2023/02/04 05:05:56;;;;;;;10.30;4.40;;;5.50;99.90;;;;;;21008308;28;19954;-76
2023/02/04 05:15:57;;;;;;;;;;;5.50;99.90;;;;;;21027202;28;20317;-76
2023/02/04 05:25:58;;;;;;;9.30;5.20;;;5.30;99.90;;;;;;21021129;28;19916;-76
2023/02/04 05:35:59;;;;;;;9.57;5.38;;;5.30;99.90;;;;;;21029485;28;20026;-76
2023/02/04 05:46:00;;;;;;;;;;;5.20;99.90;;;;;;20994290;28;20029;-78
2023/02/04 05:56:01;;;;;;;11.98;6.65;;;5.20;99.90;;;;;;21019832;28;19944;-77
2023/02/04 06:06:01;;;;;;;14.63;6.68;;;5.20;99.90;;;;;;20995610;28;20028;-77
2023/02/04 06:16:02;;;;;;;;;;;5.20;99.90;;;;;;21011404;28;20128;-77
2023/02/04 06:26:03;;;;;;;21.37;10.30;;;5.20;99.90;;;;;;21084647;28;20286;-77
2023/02/04 06:36:04;;;;;;;18.83;9.10;;;5.20;99.90;;;;;;21022637;28;20035;-77
2023/02/04 06:46:05;;;;;;;25.08;10.18;;;5.20;99.90;;;;;;21003383;28;20487;-77
2023/02/04 06:56:06;;;;;;;23.10;11.05;;;5.20;99.90;;;;;;21001688;28;20077;-77
2023/02/04 07:06:07;;;;;;;;;;;5.30;99.90;;;;;;21001834;28;20029;-77
2023/02/04 07:16:07;;;;;;;26.00;12.03;;;5.30;99.90;;;;;;21041646;28;19912;-77
2023/02/04 07:26:08;;;;;;;;;;;5.30;99.90;;;;;;21001985;28;20373;-76
2023/02/04 07:36:09;;;;;;;22.67;9.10;;;5.30;99.90;;;;;;20996817;28;19920;-76
2023/02/04 07:46:09;;;;;;;16.77;8.13;;;5.40;99.90;;;;;;20995793;28;20523;-76
2023/02/04 07:56:10;;;;;;;19.65;8.43;;;5.40;99.90;;;;;;20995605;28;20112;-76
2023/02/04 08:06:11;;;;;;;14.20;7.05;;;5.50;99.90;;;;;;20996176;28;20435;-77
2023/02/04 08:16:12;;;;;;;16.98;7.28;;;5.50;99.90;;;;;;20988966;28;20051;-76
2023/02/04 08:26:13;;;;;;;;;;;5.60;99.90;;;;;;21033657;28;20402;-76
2023/02/04 08:36:13;;;;;;;19.43;8.20;;;5.70;99.90;;;;;;21012947;28;20405;-77
2023/02/04 08:46:14;;;;;;;;;;;5.70;99.90;;;;;;20992482;28;20031;-77
2023/02/04 08:56:16;;;;;;;16.30;7.10;;;5.90;99.90;;;;;;20987403;28;20257;-76
2023/02/04 09:06:17;;;;;;;16.05;6.47;;;5.90;99.90;;;;;;21044434;28;20767;-77
2023/02/04 09:16:18;;;;;;;;;;;6.00;99.90;;;;;;21074404;28;20024;-76
2023/02/04 09:26:19;;;;;;;9.93;4.88;;;6.00;99.90;;;;;;21073497;28;19995;-76
2023/02/04 09:36:20;;;;;;;;;;;6.20;99.90;;;;;;21007481;28;20029;-76
2023/02/04 09:46:28;;;;;;;9.45;4.75;;;6.20;99.90;;;;;;20989204;28;19909;-76
2023/02/04 09:56:29;;;;;;;11.18;4.72;;;6.40;99.90;;;;;;21005440;28;20533;-76
2023/02/04 10:06:30;;;;;;;8.45;4.50;;;6.50;99.90;;;;;;21004194;28;20067;-76
2023/02/04 10:16:32;;;;;;;;;;;6.80;99.90;;;;;;21005688;28;20364;-76
2023/02/04 10:26:33;;;;;;;5.47;3.67;;;7.00;99.90;;;;;;21024001;28;19912;-76
2023/02/04 10:36:33;;;;;;;5.07;3.33;;;7.10;99.90;;;;;;21054736;28;20032;-76
2023/02/04 10:46:35;;;;;;;6.82;3.55;;;7.10;99.90;;;;;;21052969;28;20064;-76
2023/02/04 10:56:35;;;;;;;;;;;7.20;99.90;;;;;;21026944;28;20471;-76
2023/02/04 11:06:36;;;;;;;14.33;4.67;;;7.20;99.90;;;;;;21040412;28;19930;-76
2023/02/04 11:16:47;;;;;;;6.10;3.87;;;7.10;99.90;;;;;;21063411;28;20112;-76
2023/02/04 11:26:51;;;;;;;9.30;4.00;;;7.00;99.90;;;;;;21003451;28;20287;-76
2023/02/04 11:36:58;;;;;;;9.73;4.43;;;7.10;99.90;;;;;;21058571;28;20070;-77
2023/02/04 11:47:01;;;;;;;8.13;4.13;;;7.00;99.90;;;;;;21079937;28;20052;-78
2023/02/04 11:57:02;;;;;;;10.30;5.43;;;6.90;99.90;;;;;;21079433;28;20039;-76
2023/02/04 12:07:03;;;;;;;;;;;7.00;99.90;;;;;;21038309;28;20043;-77
2023/02/04 12:17:19;;;;;;;9.50;4.87;;;7.10;99.90;;;;;;21007172;28;19919;-78
2023/02/04 12:27:21;;;;;;;9.73;5.35;;;7.10;99.90;;;;;;20992039;28;20275;-76
2023/02/04 12:37:22;;;;;;;12.07;6.05;;;7.40;99.90;;;;;;21021579;28;20440;-78
2023/02/04 12:47:23;;;;;;;21.37;9.67;;;7.30;99.90;;;;;;21012138;28;20077;-77
2023/02/04 12:57:23;;;;;;;25.17;9.90;;;7.30;99.90;;;;;;21005016;28;20024;-76
2023/02/04 13:07:24;;;;;;;12.63;6.90;;;7.70;99.90;;;;;;21028654;28;20032;-75
2023/02/04 13:17:25;;;;;;;5.27;4.10;;;8.00;99.90;;;;;;20996074;28;20031;-77
2023/02/04 13:27:26;;;;;;;40.80;14.27;;;7.80;99.90;;;;;;21045561;28;20191;-77
2023/02/04 13:37:27;;;;;;;434.33;162.18;;;7.80;99.90;;;;;;21003629;28;20040;-77
2023/02/04 13:47:28;;;;;;;164.17;88.73;;;7.90;99.90;;;;;;21006002;28;20478;-77
2023/02/04 13:57:29;;;;;;;24.80;13.60;;;8.20;99.90;;;;;;21008405;28;20055;-77
2023/02/04 14:07:32;;;;;;;3.97;3.30;;;8.50;99.90;;;;;;21014722;28;20541;-76
2023/02/04 14:17:33;;;;;;;6.10;3.30;;;8.20;99.90;;;;;;20991033;28;20035;-76
2023/02/04 14:27:34;;;;;;;11.10;3.57;;;8.00;99.90;;;;;;21024444;28;20456;-77
2023/02/04 14:37:34;;;;;;;5.30;2.08;;;8.00;99.90;;;;;;21006640;28;20617;-77
2023/02/04 14:47:37;;;;;;;3.93;2.30;;;8.00;99.90;;;;;;20977935;28;20128;-76
2023/02/04 14:57:38;;;;;;;1.92;1.45;;;8.00;99.90;;;;;;20971204;28;20039;-75
2023/02/04 15:07:38;;;;;;;3.40;2.63;;;8.10;99.90;;;;;;21001813;28;20047;-75
2023/02/04 15:17:39;;;;;;;26.07;15.70;;;8.20;99.90;;;;;;20999234;28;20033;-75
2023/02/04 15:27:40;;;;;;;2.07;1.60;;;8.10;99.90;;;;;;20998112;28;20039;-76
2023/02/04 15:37:41;;;;;;;5.03;1.93;;;8.00;99.90;;;;;;20996396;28;20040;-76
2023/02/04 15:47:42;;;;;;;3.87;2.60;;;7.90;99.90;;;;;;21047473;28;20036;-75
2023/02/04 15:57:42;;;;;;;3.57;1.83;;;7.80;99.90;;;;;;21022655;28;20039;-75
2023/02/04 16:07:43;;;;;;;2.33;1.53;;;7.80;99.90;;;;;;20994902;28;20044;-76
2023/02/04 16:17:44;;;;;;;4.10;2.20;;;7.50;99.90;;;;;;20993623;28;20028;-76
2023/02/04 16:27:45;;;;;;;8.07;3.80;;;7.50;99.90;;;;;;20993075;28;20040;-77
2023/02/04 16:37:45;;;;;;;8.63;4.83;;;7.40;99.90;;;;;;20973887;28;20028;-76
2023/02/04 16:47:46;;;;;;;6.07;3.83;;;7.20;99.90;;;;;;20962077;28;20044;-76
2023/02/04 16:57:47;;;;;;;10.03;5.33;;;7.00;99.90;;;;;;20989017;28;20071;-77
2023/02/04 17:07:48;;;;;;;15.17;5.80;;;6.90;99.90;;;;;;20994455;28;20028;-77
2023/02/04 17:17:48;;;;;;;16.47;6.50;;;6.80;99.90;;;;;;20991965;28;20033;-76
2023/02/04 17:27:50;;;;;;;8.43;4.70;;;6.50;99.90;;;;;;20987031;28;20033;-77
2023/02/04 17:37:52;;;;;;;8.55;4.88;;;5.90;99.90;;;;;;21013770;28;20032;-76
2023/02/04 17:47:53;;;;;;;16.25;8.38;;;5.40;99.90;;;;;;21034606;28;20085;-76
2023/02/04 17:57:55;;;;;;;18.60;7.32;;;4.60;99.90;;;;;;21058346;28;20036;-77
2023/02/04 18:08:10;;;;;;;34.53;12.57;;;4.40;99.90;;;;;;21066082;28;20084;-77
2023/02/04 18:18:25;;;;;;;16.80;4.60;;;4.40;99.90;;;;;;21084880;28;20030;-76
2023/02/04 18:28:26;;;;;;;12.60;4.63;;;4.80;99.90;;;;;;21067821;28;20043;-77
2023/02/04 18:38:33;;;;;;;9.32;4.03;;;5.10;99.90;;;;;;20984121;28;20025;-77
2023/02/04 18:48:51;;;;;;;19.05;7.43;;;5.20;99.90;;;;;;21006369;28;20032;-76
2023/02/04 18:58:52;;;;;;;22.13;10.23;;;5.20;99.90;;;;;;21022936;28;20551;-76
2023/02/04 19:09:00;;;;;;;;;;;5.20;99.90;;;;;;20980840;28;20052;-77
2023/02/04 19:19:07;;;;;;;12.23;5.18;;;5.00;99.90;;;;;;20998338;28;19951;-76
2023/02/04 19:29:27;;;;;;;9.02;3.70;;;4.90;99.90;;;;;;20995222;28;20044;-76
2023/02/04 19:39:31;;;;;;;12.45;3.10;;;4.80;99.90;;;;;;20995775;28;20028;-76
2023/02/04 19:49:36;;;;;;;14.18;5.05;;;4.50;99.90;;;;;;20994957;28;20020;-77
2023/02/04 19:59:37;;;;;;;6.43;3.03;;;4.50;99.90;;;;;;20990280;28;20032;-76
2023/02/04 20:09:37;;;;;;;7.35;3.83;;;4.50;99.90;;;;;;20985167;28;20028;-76
2023/02/04 20:19:40;;;;;;;8.90;2.92;;;4.10;99.90;;;;;;20986085;28;20028;-76
2023/02/04 20:29:40;;;;;;;8.32;3.15;;;3.90;99.90;;;;;;20998175;28;20077;-76
2023/02/04 20:39:41;;;;;;;6.35;2.60;;;4.00;99.90;;;;;;20992887;28;20089;-76
2023/02/04 20:49:54;;;;;;;10.55;3.08;;;3.80;99.90;;;;;;20987629;28;20055;-76
2023/02/04 20:59:56;;;;;;;8.75;3.35;;;3.90;99.90;;;;;;20987671;28;20036;-77
2023/02/04 21:09:56;;;;;;;19.20;3.75;;;3.90;99.90;;;;;;20991219;28;20033;-76
2023/02/04 21:19:57;;;;;;;9.20;3.60;;;3.70;99.90;;;;;;20990401;28;20032;-76
2023/02/04 21:29:59;;;;;;;7.90;2.50;;;3.40;99.90;;;;;;20989076;28;20036;-76
2023/02/04 21:39:59;;;;;;;11.75;3.15;;;3.40;99.90;;;;;;20988003;28;20101;-76
2023/02/04 21:50:00;;;;;;;6.68;3.20;;;3.60;99.90;;;;;;20996657;28;20033;-76
2023/02/04 22:00:01;;;;;;;8.00;2.35;;;3.50;99.90;;;;;;20997885;28;20036;-76
2023/02/04 22:10:10;;;;;;;13.93;4.40;;;3.40;99.90;;;;;;21005158;28;20090;-76
2023/02/04 22:20:13;;;;;;;7.95;3.40;;;3.50;99.90;;;;;;21002727;28;20039;-76
2023/02/04 22:30:15;;;;;;;15.45;4.32;;;2.90;99.90;;;;;;21002070;28;20480;-76
2023/02/04 22:40:16;;;;;;;8.95;3.83;;;2.60;99.90;;;;;;21000557;28;20120;-77
2023/02/04 22:50:17;;;;;;;14.57;4.93;;;2.70;99.90;;;;;;20998638;28;20029;-76
2023/02/04 23:00:18;;;;;;;15.63;4.00;;;2.60;99.90;;;;;;20999571;28;20471;-77
2023/02/04 23:10:19;;;;;;;13.52;4.18;;;2.60;99.90;;;;;;20999676;28;20507;-77
2023/02/04 23:20:20;;;;;;;13.23;5.07;;;2.70;99.90;;;;;;21006768;28;20082;-76
2023/02/04 23:30:21;;;;;;;11.32;4.80;;;2.80;99.90;;;;;;20998768;28;20081;-77
2023/02/04 23:40:21;;;;;;;10.25;4.03;;;2.40;99.90;;;;;;21007348;28;20088;-77
2023/02/04 23:50:22;;;;;;;19.80;5.10;;;2.10;99.90;;;;;;21079894;28;20032;-77
